Time;durP1;ratioP1;P1;durP2;ratioP2;P2;SDS_P1;SDS_P2;PMS_P1;PMS_P2;Temp;Humidity;BMP_temperature;BMP_pressure;BME280_temperature;BME280_humidity;BME280_pressure;Samples;Min_cycle;Max_cycle;Signal;HPM_P1;HPM_P2
2023/02/14 00:01:53;;;;;;;16.27;12.10;;;;;;;;;;4999243;28;20685;-70
2023/02/14 00:04:18;;;;;;;20.10;15.27;;;;;;;;;;5000198;28;20316;-70
2023/02/14 00:06:44;;;;;;;18.57;14.97;;;;;;;;;;5007731;28;20766;-70
2023/02/14 00:09:17;;;;;;;23.47;16.27;;;;;;;;;;5005480;28;20185;-71
2023/02/14 00:11:42;;;;;;;22.03;16.57;;;;;;;;;;5003420;28;20185;-71
2023/02/14 00:16:52;;;;;;;25.93;17.93;;;;;;;;;;5005897;28;20284;-71
2023/02/14 00:19:18;;;;;;;24.67;18.00;;;;;;;;;;5004454;28;20467;-70
2023/02/14 00:21:43;;;;;;;23.60;18.73;;;;;;;;;;5007386;28;20243;-70
2023/02/14 00:24:10;;;;;;;24.30;18.43;;;;;;;;;;5005727;28;20447;-70
2023/02/14 00:26:37;;;;;;;24.30;18.27;;;;;;;;;;5007913;28;20184;-70
2023/02/14 00:29:03;;;;;;;25.57;17.80;;;;;;;;;;5007062;28;20439;-71
2023/02/14 00:31:28;;;;;;;29.93;20.47;;;;;;;;;;5005694;28;20435;-71
2023/02/14 00:33:54;;;;;;;25.03;18.87;;;;;;;;;;5006234;28;20514;-70
2023/02/14 00:36:19;;;;;;;26.57;18.93;;;;;;;;;;5002535;28;20275;-70
2023/02/14 00:38:45;;;;;;;24.13;18.27;;;;;;;;;;5007339;28;20643;-71
2023/02/14 00:41:17;;;;;;;27.50;19.30;;;;;;;;;;5008179;28;20177;-70
2023/02/14 00:43:43;;;;;;;27.10;19.73;;;;;;;;;;5005333;28;20235;-70
2023/02/14 00:46:08;;;;;;;26.67;20.13;;;;;;;;;;5005356;28;20924;-70
2023/02/14 00:48:33;;;;;;;27.47;20.10;;;;;;;;;;5005941;28;20259;-70
2023/02/14 00:50:59;;;;;;;28.43;20.93;;;;;;;;;;5009860;28;20173;-70
2023/02/14 00:53:24;;;;;;;27.63;21.00;;;;;;;;;;5009641;28;20180;-70
2023/02/14 00:55:49;;;;;;;26.43;20.60;;;;;;;;;;5011347;28;20183;-70
2023/02/14 00:58:14;;;;;;;29.50;20.70;;;;;;;;;;5009567;28;20188;-70
2023/02/14 01:00:40;;;;;;;28.63;20.97;;;;;;;;;;5010631;28;20716;-69
2023/02/14 01:03:05;;;;;;;29.63;20.50;;;;;;;;;;5008304;28;20192;-69
2023/02/14 01:05:30;;;;;;;27.87;21.10;;;;;;;;;;5008631;28;20863;-69
2023/02/14 01:07:56;;;;;;;25.60;19.77;;;;;;;;;;5009087;28;20268;-69
2023/02/14 01:10:21;;;;;;;23.27;18.63;;;;;;;;;;5009982;28;20211;-69
2023/02/14 01:12:46;;;;;;;23.10;18.53;;;;;;;;;;5008503;28;20328;-69
2023/02/14 01:15:11;;;;;;;22.60;17.80;;;;;;;;;;5005037;28;20220;-69
2023/02/14 01:17:37;;;;;;;21.77;17.50;;;;;;;;;;5005051;28;20658;-69
2023/02/14 01:20:03;;;;;;;18.47;15.37;;;;;;;;;;5007665;28;20200;-69
2023/02/14 01:22:28;;;;;;;18.93;14.70;;;;;;;;;;5009285;28;20217;-68
2023/02/14 01:24:53;;;;;;;15.67;13.10;;;;;;;;;;5004894;28;20480;-69
2023/02/14 01:27:18;;;;;;;14.00;12.17;;;;;;;;;;5006715;28;20185;-69
2023/02/14 01:29:44;;;;;;;15.27;12.10;;;;;;;;;;5005350;28;20189;-69
2023/02/14 01:32:09;;;;;;;14.33;12.53;;;;;;;;;;5008978;28;20181;-69
2023/02/14 01:34:34;;;;;;;14.90;12.60;;;;;;;;;;5005986;28;20723;-69
2023/02/14 01:36:59;;;;;;;13.00;11.60;;;;;;;;;;5004960;28;20192;-70
2023/02/14 01:39:25;;;;;;;13.90;11.90;;;;;;;;;;5003508;28;20204;-69
2023/02/14 01:41:52;;;;;;;13.00;11.37;;;;;;;;;;5005597;28;20177;-69
2023/02/14 01:44:17;;;;;;;13.03;11.63;;;;;;;;;;5004017;28;20251;-69
2023/02/14 01:46:43;;;;;;;12.70;11.40;;;;;;;;;;4999820;28;20909;-69
2023/02/14 01:49:14;;;;;;;12.60;11.30;;;;;;;;;;5000181;28;20227;-68
2023/02/14 01:51:53;;;;;;;12.53;11.23;;;;;;;;;;5003376;28;20933;-68
2023/02/14 01:54:20;;;;;;;12.67;11.17;;;;;;;;;;5002320;28;20464;-69
2023/02/14 01:56:47;;;;;;;12.63;11.33;;;;;;;;;;5001571;28;20466;-69
2023/02/14 01:59:16;;;;;;;13.43;11.97;;;;;;;;;;5004432;28;20530;-69
2023/02/14 02:01:42;;;;;;;11.60;10.40;;;;;;;;;;5003432;28;20512;-69
2023/02/14 02:04:09;;;;;;;12.27;11.00;;;;;;;;;;5003716;28;20542;-69
2023/02/14 02:06:39;;;;;;;12.57;11.27;;;;;;;;;;5004560;28;20290;-68
2023/02/14 02:09:16;;;;;;;10.93;9.73;;;;;;;;;;5003413;28;20436;-69
2023/02/14 02:11:42;;;;;;;11.20;10.03;;;;;;;;;;5002790;28;20439;-68
2023/02/14 02:14:18;;;;;;;11.70;10.50;;;;;;;;;;5003220;28;21012;-69
2023/02/14 02:16:51;;;;;;;12.03;10.87;;;;;;;;;;5003163;28;20322;-68
2023/02/14 02:19:39;;;;;;;12.30;11.00;;;;;;;;;;5006163;28;20485;-69
2023/02/14 02:22:13;;;;;;;12.17;10.97;;;;;;;;;;5003166;28;20995;-69
2023/02/14 02:24:52;;;;;;;10.77;9.67;;;;;;;;;;5003358;28;21018;-68
2023/02/14 02:27:36;;;;;;;11.20;10.00;;;;;;;;;;5003965;28;20417;-69
2023/02/14 02:30:28;;;;;;;13.57;12.17;;;;;;;;;;5000429;28;20424;-69
2023/02/14 02:33:14;;;;;;;14.33;12.80;;;;;;;;;;4999990;28;20436;-68
2023/02/14 02:35:39;;;;;;;14.07;12.17;;;;;;;;;;4963783;28;27013;-68
2023/02/14 02:38:20;;;;;;;13.77;12.10;;;;;;;;;;5001632;28;20436;-69
2023/02/14 02:40:45;;;;;;;14.10;12.60;;;;;;;;;;5004076;28;20247;-69
2023/02/14 02:43:16;;;;;;;15.10;12.23;;;;;;;;;;5001928;28;20841;-69
2023/02/14 02:48:55;;;;;;;14.43;12.90;;;;;;;;;;4999044;28;20419;-68
2023/02/14 02:54:18;;;;;;;13.60;12.00;;;;;;;;;;5002196;28;20827;-68
2023/02/14 02:56:54;;;;;;;14.07;12.60;;;;;;;;;;5007200;28;20412;-69
2023/02/14 02:59:24;;;;;;;13.83;12.33;;;;;;;;;;5006961;28;20967;-68
2023/02/14 03:02:10;;;;;;;13.40;11.30;;;;;;;;;;5005494;28;20419;-68
2023/02/14 03:04:52;;;;;;;14.83;13.17;;;;;;;;;;5004796;28;20828;-68
2023/02/14 03:07:34;;;;;;;15.90;13.63;;;;;;;;;;5000230;28;20786;-69
2023/02/14 03:10:00;;;;;;;14.70;12.60;;;;;;;;;;5001927;28;20509;-69
2023/02/14 03:12:39;;;;;;;14.90;12.17;;;;;;;;;;5000908;28;20432;-68
2023/02/14 03:15:19;;;;;;;17.00;14.07;;;;;;;;;;5006194;28;20502;-69
2023/02/14 03:20:54;;;;;;;16.87;13.37;;;;;;;;;;5002262;28;20517;-69
2023/02/14 03:23:20;;;;;;;16.70;13.87;;;;;;;;;;5001206;28;20432;-69
2023/02/14 03:25:45;;;;;;;14.93;13.27;;;;;;;;;;5000144;28;20509;-69
2023/02/14 03:28:25;;;;;;;18.37;13.87;;;;;;;;;;5000042;28;20177;-69
2023/02/14 03:31:20;;;;;;;17.17;13.83;;;;;;;;;;5003389;28;20195;-68
2023/02/14 03:34:09;;;;;;;17.03;13.43;;;;;;;;;;4986667;28;20451;-68
2023/02/14 03:36:47;;;;;;;16.30;13.57;;;;;;;;;;5002916;28;20427;-69
2023/02/14 03:39:17;;;;;;;16.67;13.43;;;;;;;;;;5000474;28;20507;-69
2023/02/14 03:41:49;;;;;;;14.60;12.37;;;;;;;;;;5008739;28;20470;-69
2023/02/14 03:44:17;;;;;;;16.20;13.13;;;;;;;;;;5020257;28;20983;-69
2023/02/14 03:46:50;;;;;;;16.83;12.63;;;;;;;;;;5006078;28;20435;-69
2023/02/14 03:49:17;;;;;;;17.30;13.53;;;;;;;;;;5005643;28;20937;-69
2023/02/14 03:51:45;;;;;;;14.37;11.83;;;;;;;;;;5007770;28;20489;-69
2023/02/14 03:54:10;;;;;;;14.70;12.77;;;;;;;;;;5005870;28;20526;-68
2023/02/14 03:56:38;;;;;;;15.67;12.87;;;;;;;;;;5004739;28;20436;-69
2023/02/14 03:59:14;;;;;;;16.03;13.17;;;;;;;;;;5007472;28;20227;-69
2023/02/14 04:01:46;;;;;;;15.67;12.90;;;;;;;;;;5006386;28;20785;-69
2023/02/14 04:04:12;;;;;;;15.47;12.87;;;;;;;;;;5005137;28;20452;-69
2023/02/14 04:06:37;;;;;;;16.03;13.23;;;;;;;;;;5007659;28;20420;-69
2023/02/14 04:09:03;;;;;;;18.03;12.60;;;;;;;;;;5007047;28;20442;-69
2023/02/14 04:11:32;;;;;;;14.67;12.23;;;;;;;;;;5006852;28;20577;-69
2023/02/14 04:13:57;;;;;;;17.30;14.47;;;;;;;;;;5008894;28;20271;-69
2023/02/14 04:16:22;;;;;;;16.47;13.13;;;;;;;;;;5005584;28;20809;-69
2023/02/14 04:21:31;;;;;;;17.87;13.90;;;;;;;;;;5007852;28;20179;-69
2023/02/14 04:23:57;;;;;;;16.23;12.83;;;;;;;;;;5009278;28;20451;-68
2023/02/14 04:26:22;;;;;;;15.23;12.80;;;;;;;;;;5005131;28;20244;-69
2023/02/14 04:28:47;;;;;;;18.43;14.07;;;;;;;;;;5007223;28;20554;-68
2023/02/14 04:31:12;;;;;;;19.10;14.37;;;;;;;;;;5004643;28;20233;-68
2023/02/14 04:33:38;;;;;;;18.70;14.20;;;;;;;;;;5005515;28;20197;-69
2023/02/14 04:36:03;;;;;;;19.07;14.27;;;;;;;;;;5005034;28;20324;-69
2023/02/14 04:38:30;;;;;;;19.23;13.97;;;;;;;;;;5005834;28;20185;-69
2023/02/14 04:40:55;;;;;;;19.63;13.90;;;;;;;;;;5006051;28;20209;-69
2023/02/14 04:43:20;;;;;;;17.17;13.73;;;;;;;;;;5005562;28;20446;-68
2023/02/14 04:45:46;;;;;;;17.37;13.70;;;;;;;;;;5006918;28;20185;-69
2023/02/14 04:48:11;;;;;;;18.40;13.67;;;;;;;;;;5006801;28;20216;-69
2023/02/14 04:50:36;;;;;;;17.37;13.30;;;;;;;;;;5008750;28;20211;-69
2023/02/14 04:53:02;;;;;;;17.00;14.10;;;;;;;;;;5007468;28;20181;-68
2023/02/14 04:55:27;;;;;;;18.07;14.03;;;;;;;;;;5009621;28;20569;-69
2023/02/14 04:57:52;;;;;;;19.77;14.60;;;;;;;;;;5009288;28;20177;-68
2023/02/14 05:00:18;;;;;;;20.73;15.80;;;;;;;;;;5010777;28;20244;-69
2023/02/14 05:02:43;;;;;;;22.23;16.10;;;;;;;;;;5008288;28;20177;-69
2023/02/14 05:05:08;;;;;;;18.70;14.70;;;;;;;;;;5006225;28;20820;-69
2023/02/14 05:07:36;;;;;;;20.23;15.90;;;;;;;;;;5008326;28;20235;-69
2023/02/14 05:10:02;;;;;;;18.53;14.73;;;;;;;;;;5007797;28;20178;-69
2023/02/14 05:12:27;;;;;;;23.47;16.30;;;;;;;;;;5005004;28;20416;-69
2023/02/14 05:14:53;;;;;;;17.27;14.33;;;;;;;;;;5002799;28;20546;-69
2023/02/14 05:17:18;;;;;;;18.17;14.43;;;;;;;;;;5006828;28;20195;-69
2023/02/14 05:19:44;;;;;;;20.37;15.70;;;;;;;;;;5005165;28;20204;-69
2023/02/14 05:22:09;;;;;;;20.57;15.00;;;;;;;;;;5003977;28;20196;-69
2023/02/14 05:24:34;;;;;;;20.97;16.67;;;;;;;;;;5005184;28;20196;-69
2023/02/14 05:27:00;;;;;;;19.00;15.00;;;;;;;;;;5005919;28;20630;-69
2023/02/14 05:29:25;;;;;;;20.27;14.97;;;;;;;;;;5006778;28;20195;-69
2023/02/14 05:31:50;;;;;;;21.93;16.07;;;;;;;;;;5009712;28;20185;-69
2023/02/14 05:34:16;;;;;;;21.27;16.20;;;;;;;;;;5005666;28;20689;-69
2023/02/14 05:36:41;;;;;;;21.77;15.50;;;;;;;;;;5006600;28;20185;-69
2023/02/14 05:39:06;;;;;;;22.73;16.40;;;;;;;;;;5003965;28;20212;-69
2023/02/14 05:41:31;;;;;;;23.23;16.70;;;;;;;;;;5006483;28;20634;-69
2023/02/14 05:43:57;;;;;;;18.13;14.73;;;;;;;;;;5005885;28;20209;-69
2023/02/14 05:46:22;;;;;;;21.33;16.33;;;;;;;;;;5006010;28;20181;-69
2023/02/14 05:48:47;;;;;;;20.63;15.80;;;;;;;;;;5006234;28;20183;-72
2023/02/14 05:51:13;;;;;;;20.10;15.40;;;;;;;;;;5005786;28;20185;-69
2023/02/14 05:53:38;;;;;;;22.10;17.30;;;;;;;;;;5007188;28;20197;-69
2023/02/14 05:56:04;;;;;;;25.23;17.63;;;;;;;;;;5007058;28;20181;-69
2023/02/14 05:58:29;;;;;;;21.73;16.63;;;;;;;;;;5005130;28;20256;-70
2023/02/14 06:00:55;;;;;;;24.30;17.90;;;;;;;;;;5006829;28;20200;-69
2023/02/14 06:03:21;;;;;;;21.33;17.17;;;;;;;;;;4998962;28;20453;-69
2023/02/14 06:05:46;;;;;;;20.83;15.53;;;;;;;;;;5004432;28;20899;-70
2023/02/14 06:08:11;;;;;;;22.27;17.17;;;;;;;;;;5005877;28;20831;-69
2023/02/14 06:10:36;;;;;;;25.27;17.23;;;;;;;;;;5005872;28;20220;-69
2023/02/14 06:13:02;;;;;;;20.60;15.70;;;;;;;;;;5003645;28;20188;-70
2023/02/14 06:15:27;;;;;;;23.03;16.37;;;;;;;;;;5004585;28;20216;-69
2023/02/14 06:17:56;;;;;;;22.70;17.30;;;;;;;;;;5000488;28;20196;-69
2023/02/14 06:20:22;;;;;;;23.60;16.33;;;;;;;;;;5001903;28;20201;-70
2023/02/14 06:22:48;;;;;;;24.40;17.23;;;;;;;;;;5002869;28;20440;-70
2023/02/14 06:25:14;;;;;;;22.97;16.77;;;;;;;;;;5001863;28;20882;-71
2023/02/14 06:27:39;;;;;;;24.97;18.30;;;;;;;;;;4991727;28;20177;-70
2023/02/14 06:30:05;;;;;;;23.73;17.60;;;;;;;;;;4998019;28;20486;-70
2023/02/14 06:32:30;;;;;;;22.20;16.87;;;;;;;;;;5003377;28;20228;-70
2023/02/14 06:34:56;;;;;;;22.70;16.83;;;;;;;;;;5006866;28;20203;-70
2023/02/14 06:37:21;;;;;;;22.90;17.03;;;;;;;;;;5007562;28;20182;-70
2023/02/14 06:39:46;;;;;;;22.17;16.10;;;;;;;;;;5005142;28;20201;-70
2023/02/14 06:42:12;;;;;;;24.67;15.80;;;;;;;;;;4999368;28;20485;-70
2023/02/14 06:44:37;;;;;;;21.50;16.40;;;;;;;;;;5004531;28;20245;-70
2023/02/14 06:47:03;;;;;;;21.53;15.80;;;;;;;;;;5005886;28;20181;-70
2023/02/14 06:49:28;;;;;;;19.97;15.40;;;;;;;;;;5000350;28;20177;-70
2023/02/14 06:51:55;;;;;;;21.50;16.30;;;;;;;;;;5002588;28;20460;-70
2023/02/14 06:54:20;;;;;;;23.00;16.60;;;;;;;;;;4998692;28;20466;-70
2023/02/14 06:56:45;;;;;;;23.70;16.53;;;;;;;;;;4999472;28;20200;-70
2023/02/14 06:59:13;;;;;;;20.30;16.10;;;;;;;;;;5000788;28;20215;-70
2023/02/14 07:01:38;;;;;;;22.27;16.90;;;;;;;;;;4996398;28;20312;-70
2023/02/14 07:04:04;;;;;;;21.63;16.60;;;;;;;;;;5006139;28;20526;-70
2023/02/14 07:06:29;;;;;;;23.10;17.60;;;;;;;;;;5004744;28;20669;-70
2023/02/14 07:08:55;;;;;;;22.80;17.40;;;;;;;;;;5007827;28;20201;-71
2023/02/14 07:11:20;;;;;;;23.50;16.93;;;;;;;;;;5005051;28;20173;-70
2023/02/14 07:13:45;;;;;;;23.57;16.50;;;;;;;;;;5002238;28;20307;-71
2023/02/14 07:16:11;;;;;;;23.10;16.60;;;;;;;;;;5001676;28;20712;-70
2023/02/14 07:18:36;;;;;;;24.17;17.40;;;;;;;;;;5001093;28;20292;-70
2023/02/14 07:21:01;;;;;;;23.07;17.03;;;;;;;;;;5001026;28;20204;-70
2023/02/14 07:23:27;;;;;;;24.23;19.03;;;;;;;;;;5000134;28;20665;-70
2023/02/14 07:25:53;;;;;;;25.13;17.80;;;;;;;;;;4999873;28;20551;-70
2023/02/14 07:28:19;;;;;;;24.13;17.00;;;;;;;;;;4999750;28;20581;-71
2023/02/14 07:30:44;;;;;;;23.13;16.90;;;;;;;;;;5000478;28;20439;-71
2023/02/14 07:33:09;;;;;;;22.17;16.37;;;;;;;;;;5000851;28;20184;-71
2023/02/14 07:35:34;;;;;;;23.40;17.80;;;;;;;;;;5004144;28;20188;-71
2023/02/14 07:38:00;;;;;;;24.93;17.00;;;;;;;;;;5000668;28;20180;-70
2023/02/14 07:40:25;;;;;;;23.83;18.30;;;;;;;;;;4997207;28;20731;-70
2023/02/14 07:42:54;;;;;;;25.30;17.93;;;;;;;;;;5001922;28;20177;-70
2023/02/14 07:45:19;;;;;;;23.50;17.47;;;;;;;;;;4999070;28;20206;-69
2023/02/14 07:47:46;;;;;;;23.73;17.77;;;;;;;;;;5000166;28;20446;-70
2023/02/14 07:50:12;;;;;;;23.97;16.70;;;;;;;;;;5000704;28;20662;-70
2023/02/14 07:52:37;;;;;;;23.73;18.93;;;;;;;;;;5003860;28;20446;-71
2023/02/14 07:55:02;;;;;;;25.40;18.23;;;;;;;;;;5003031;28;20270;-70
2023/02/14 07:57:28;;;;;;;27.70;19.00;;;;;;;;;;4994659;28;20199;-71
2023/02/14 07:59:53;;;;;;;26.70;18.77;;;;;;;;;;5001940;28;20477;-70
2023/02/14 08:02:19;;;;;;;23.73;18.37;;;;;;;;;;5005482;28;20216;-71
2023/02/14 08:04:45;;;;;;;25.20;19.07;;;;;;;;;;5000792;28;20215;-70
2023/02/14 08:07:10;;;;;;;24.13;18.90;;;;;;;;;;5003723;28;20439;-70
2023/02/14 08:09:35;;;;;;;23.00;18.40;;;;;;;;;;5001064;28;20638;-70
2023/02/14 08:14:44;;;;;;;24.17;18.60;;;;;;;;;;4999865;28;20275;-70
2023/02/14 08:17:12;;;;;;;21.93;17.53;;;;;;;;;;5003985;28;20436;-70
2023/02/14 08:19:37;;;;;;;24.17;18.70;;;;;;;;;;5002466;28;20350;-71
2023/02/14 08:22:03;;;;;;;27.00;18.40;;;;;;;;;;5003049;28;20519;-71
2023/02/14 08:24:29;;;;;;;22.60;18.43;;;;;;;;;;4997296;28;20706;-70
2023/02/14 08:26:54;;;;;;;24.87;18.30;;;;;;;;;;5004000;28;20185;-71
2023/02/14 08:29:19;;;;;;;23.77;18.60;;;;;;;;;;5005000;28;20192;-70
2023/02/14 08:31:46;;;;;;;26.77;19.23;;;;;;;;;;5005933;28;20192;-71
2023/02/14 08:34:11;;;;;;;24.30;18.70;;;;;;;;;;5005508;28;20197;-70
2023/02/14 08:36:36;;;;;;;23.87;16.57;;;;;;;;;;5005097;28;20442;-71
2023/02/14 08:39:03;;;;;;;23.37;17.10;;;;;;;;;;5004182;28;20243;-72
2023/02/14 08:41:28;;;;;;;25.20;19.07;;;;;;;;;;5005188;28;20200;-72
2023/02/14 08:43:53;;;;;;;23.90;19.03;;;;;;;;;;5006164;28;20953;-72
2023/02/14 08:46:19;;;;;;;25.40;18.40;;;;;;;;;;5005146;28;20177;-72
2023/02/14 08:48:44;;;;;;;26.40;18.20;;;;;;;;;;5007520;28;20706;-72
2023/02/14 08:51:11;;;;;;;26.50;19.13;;;;;;;;;;5004642;28;20185;-72
2023/02/14 08:53:36;;;;;;;26.13;18.90;;;;;;;;;;5000726;28;20217;-72
2023/02/14 08:56:02;;;;;;;24.10;17.87;;;;;;;;;;5002951;28;21657;-72
2023/02/14 08:58:28;;;;;;;25.53;19.40;;;;;;;;;;5006130;28;20693;-72
2023/02/14 09:00:54;;;;;;;22.90;17.70;;;;;;;;;;5003974;28;20468;-71
2023/02/14 09:03:19;;;;;;;23.57;18.10;;;;;;;;;;5005250;28;20192;-72
2023/02/14 09:05:45;;;;;;;26.67;19.07;;;;;;;;;;5004904;28;20428;-72
2023/02/14 09:08:10;;;;;;;25.57;19.63;;;;;;;;;;5001754;28;20185;-72
2023/02/14 09:10:35;;;;;;;26.60;20.20;;;;;;;;;;5003799;28;20182;-72
2023/02/14 09:13:00;;;;;;;25.30;19.03;;;;;;;;;;5005129;28;20288;-72
2023/02/14 09:15:26;;;;;;;26.40;18.97;;;;;;;;;;5003219;28;20293;-72
2023/02/14 09:17:51;;;;;;;25.17;19.13;;;;;;;;;;5003770;28;20208;-72
2023/02/14 09:20:16;;;;;;;24.20;18.10;;;;;;;;;;5002550;28;20210;-72
2023/02/14 09:22:42;;;;;;;25.17;18.60;;;;;;;;;;5000487;28;20685;-72
2023/02/14 09:25:08;;;;;;;23.90;18.90;;;;;;;;;;5004692;28;20246;-72
2023/02/14 09:27:33;;;;;;;22.03;16.93;;;;;;;;;;5003556;28;20177;-72
2023/02/14 09:29:58;;;;;;;22.37;17.03;;;;;;;;;;5001676;28;20255;-72
2023/02/14 09:32:25;;;;;;;21.83;16.50;;;;;;;;;;5008350;28;20173;-72
2023/02/14 09:34:50;;;;;;;19.97;16.67;;;;;;;;;;5009617;28;20259;-72
2023/02/14 09:39:59;;;;;;;19.40;16.00;;;;;;;;;;5006702;28;20215;-72
2023/02/14 09:42:37;;;;;;;18.30;15.23;;;;;;;;;;5006442;28;20431;-73
2023/02/14 09:45:05;;;;;;;19.50;15.80;;;;;;;;;;5004507;28;20208;-72
2023/02/14 09:47:38;;;;;;;19.87;15.93;;;;;;;;;;5004911;28;20428;-73
2023/02/14 09:50:05;;;;;;;18.30;15.00;;;;;;;;;;5015557;28;20806;-72
2023/02/14 09:52:30;;;;;;;15.07;12.97;;;;;;;;;;4998553;28;20590;-73
2023/02/14 09:55:01;;;;;;;16.90;14.40;;;;;;;;;;5005911;28;20876;-72
2023/02/14 09:57:35;;;;;;;16.03;13.43;;;;;;;;;;5004320;28;20205;-73
2023/02/14 10:00:04;;;;;;;15.90;13.40;;;;;;;;;;5003683;28;20474;-73
2023/02/14 10:02:35;;;;;;;16.23;14.07;;;;;;;;;;5006260;28;20425;-73
2023/02/14 10:05:12;;;;;;;16.10;14.20;;;;;;;;;;5005250;28;20539;-72
2023/02/14 10:07:56;;;;;;;15.67;13.20;;;;;;;;;;5009107;28;20419;-73
2023/02/14 10:10:24;;;;;;;16.37;13.73;;;;;;;;;;5008104;28;20423;-72
2023/02/14 10:12:53;;;;;;;15.87;14.13;;;;;;;;;;5002070;28;20451;-72
2023/02/14 10:15:20;;;;;;;16.07;13.70;;;;;;;;;;5005903;28;20481;-72
2023/02/14 10:17:53;;;;;;;14.90;13.30;;;;;;;;;;5007620;28;20428;-73
2023/02/14 10:20:21;;;;;;;15.33;13.10;;;;;;;;;;5009765;28;20470;-72
2023/02/14 10:23:03;;;;;;;15.93;14.03;;;;;;;;;;5006029;28;20423;-73
2023/02/14 10:25:32;;;;;;;15.50;13.40;;;;;;;;;;5005442;28;20510;-73
2023/02/14 10:28:00;;;;;;;16.03;14.33;;;;;;;;;;5008029;28;20422;-72
2023/02/14 10:30:25;;;;;;;17.57;15.07;;;;;;;;;;5006029;28;20461;-73
2023/02/14 10:33:07;;;;;;;15.00;13.07;;;;;;;;;;4998706;28;20789;-73
2023/02/14 10:35:54;;;;;;;15.43;13.93;;;;;;;;;;5002068;28;20209;-72
2023/02/14 10:38:27;;;;;;;14.77;13.17;;;;;;;;;;5007806;28;20462;-72
2023/02/14 10:41:11;;;;;;;16.20;13.90;;;;;;;;;;5008619;28;20554;-73
2023/02/14 10:43:46;;;;;;;18.43;15.00;;;;;;;;;;5008829;28;20463;-73
2023/02/14 10:46:23;;;;;;;16.67;13.47;;;;;;;;;;5007003;28;20431;-72
2023/02/14 10:48:58;;;;;;;15.30;13.70;;;;;;;;;;5007302;28;20765;-73
2023/02/14 10:51:29;;;;;;;16.50;14.33;;;;;;;;;;5005725;28;20589;-72
2023/02/14 10:54:13;;;;;;;15.17;13.67;;;;;;;;;;5006014;28;20467;-73
2023/02/14 10:56:44;;;;;;;16.70;14.07;;;;;;;;;;5003975;28;20444;-72
2023/02/14 10:59:20;;;;;;;16.03;14.17;;;;;;;;;;5008333;28;20416;-72
2023/02/14 11:01:46;;;;;;;20.63;16.27;;;;;;;;;;5002991;28;20860;-72
2023/02/14 11:04:13;;;;;;;16.23;14.23;;;;;;;;;;4999998;28;20475;-72
2023/02/14 11:06:38;;;;;;;19.23;15.30;;;;;;;;;;5003753;28;20518;-72
2023/02/14 11:09:03;;;;;;;17.20;15.27;;;;;;;;;;5001665;28;20523;-72
2023/02/14 11:11:42;;;;;;;16.27;13.87;;;;;;;;;;5004819;28;20176;-73
2023/02/14 11:14:19;;;;;;;18.60;15.90;;;;;;;;;;5004901;28;20224;-72
2023/02/14 11:16:46;;;;;;;19.80;15.40;;;;;;;;;;5005752;28;20498;-73
2023/02/14 11:19:14;;;;;;;19.03;14.50;;;;;;;;;;5002491;28;20719;-73
2023/02/14 11:21:40;;;;;;;16.73;14.60;;;;;;;;;;5003337;28;20940;-73
2023/02/14 11:24:35;;;;;;;18.43;14.83;;;;;;;;;;5001355;28;20518;-73
2023/02/14 11:27:02;;;;;;;16.93;15.13;;;;;;;;;;4999441;28;20515;-73
2023/02/14 11:29:28;;;;;;;16.93;14.90;;;;;;;;;;5005329;28;21797;-73
2023/02/14 11:31:53;;;;;;;17.63;15.20;;;;;;;;;;5002709;28;20493;-73
2023/02/14 11:34:38;;;;;;;16.20;14.50;;;;;;;;;;5002106;28;20708;-73
2023/02/14 11:37:15;;;;;;;22.83;16.50;;;;;;;;;;5003745;28;20188;-73
2023/02/14 11:39:40;;;;;;;20.30;16.10;;;;;;;;;;4999608;28;20963;-73
2023/02/14 11:42:10;;;;;;;18.30;16.37;;;;;;;;;;5003836;28;20432;-73
2023/02/14 11:44:42;;;;;;;16.53;14.83;;;;;;;;;;5001058;28;20702;-73
2023/02/14 11:47:31;;;;;;;16.90;14.20;;;;;;;;;;5007968;28;20422;-73
2023/02/14 11:50:01;;;;;;;17.03;15.27;;;;;;;;;;5006338;28;20420;-73
2023/02/14 11:52:28;;;;;;;19.57;15.30;;;;;;;;;;5004855;28;20440;-72
2023/02/14 11:54:54;;;;;;;16.93;15.10;;;;;;;;;;5000181;28;20456;-73
2023/02/14 11:57:38;;;;;;;18.50;15.97;;;;;;;;;;5005707;28;20998;-73
2023/02/14 12:00:14;;;;;;;18.80;15.73;;;;;;;;;;5002112;28;20247;-73
2023/02/14 12:02:44;;;;;;;17.33;14.30;;;;;;;;;;5000814;28;20535;-72
2023/02/14 12:05:19;;;;;;;22.00;17.20;;;;;;;;;;5005132;28;20439;-73
2023/02/14 12:07:45;;;;;;;20.37;15.87;;;;;;;;;;5010769;28;20900;-72
2023/02/14 12:10:16;;;;;;;17.80;15.90;;;;;;;;;;5009513;28;20420;-72
2023/02/14 12:12:47;;;;;;;21.10;16.63;;;;;;;;;;5011032;28;20415;-72
2023/02/14 12:15:33;;;;;;;20.10;17.00;;;;;;;;;;5011424;28;20509;-72
2023/02/14 12:18:08;;;;;;;23.20;16.40;;;;;;;;;;5010832;28;20411;-72
2023/02/14 12:20:52;;;;;;;19.30;14.70;;;;;;;;;;5009663;28;20461;-72
2023/02/14 12:23:23;;;;;;;17.83;15.00;;;;;;;;;;5010396;28;20490;-72
2023/02/14 12:25:50;;;;;;;17.87;15.97;;;;;;;;;;5010496;28;20392;-72
2023/02/14 12:28:18;;;;;;;20.43;16.60;;;;;;;;;;5009988;28;20419;-72
2023/02/14 12:30:43;;;;;;;21.60;17.30;;;;;;;;;;5010046;28;20423;-72
2023/02/14 12:33:19;;;;;;;20.73;17.20;;;;;;;;;;5010654;28;20420;-72
2023/02/14 12:35:53;;;;;;;20.07;17.00;;;;;;;;;;5024614;28;20226;-72
2023/02/14 12:38:45;;;;;;;19.53;17.47;;;;;;;;;;5010329;28;20794;-72
2023/02/14 12:41:13;;;;;;;20.20;16.73;;;;;;;;;;5009742;28;20470;-72
2023/02/14 12:43:39;;;;;;;20.37;17.03;;;;;;;;;;5009917;28;20463;-72
2023/02/14 12:46:04;;;;;;;18.90;16.13;;;;;;;;;;5010199;28;20443;-72
2023/02/14 12:48:41;;;;;;;19.23;16.40;;;;;;;;;;5005428;28;20260;-73
2023/02/14 12:51:11;;;;;;;18.60;16.63;;;;;;;;;;5005576;28;20185;-72
2023/02/14 12:53:45;;;;;;;21.43;16.50;;;;;;;;;;5006492;28;20451;-72
2023/02/14 12:56:17;;;;;;;19.83;16.20;;;;;;;;;;5005410;28;20426;-72
2023/02/14 12:58:45;;;;;;;18.07;15.97;;;;;;;;;;5006936;28;20436;-73
2023/02/14 13:01:16;;;;;;;18.00;15.40;;;;;;;;;;5003913;28;21856;-72
2023/02/14 13:03:57;;;;;;;19.60;16.90;;;;;;;;;;5006289;28;20439;-73
2023/02/14 13:06:28;;;;;;;18.33;15.97;;;;;;;;;;5000376;28;21173;-72
2023/02/14 13:09:00;;;;;;;20.80;16.73;;;;;;;;;;5007755;28;20950;-72
2023/02/14 13:11:38;;;;;;;21.03;17.70;;;;;;;;;;5002696;28;20450;-72
2023/02/14 13:14:09;;;;;;;18.53;16.40;;;;;;;;;;5003491;28;20617;-72
2023/02/14 13:16:37;;;;;;;22.53;17.03;;;;;;;;;;5006760;28;20439;-73
2023/02/14 13:19:25;;;;;;;20.60;18.00;;;;;;;;;;5002757;28;20525;-72
2023/02/14 13:21:51;;;;;;;19.57;16.77;;;;;;;;;;5007007;28;20455;-72
2023/02/14 13:24:24;;;;;;;18.53;16.50;;;;;;;;;;5005364;28;20448;-73
2023/02/14 13:26:54;;;;;;;21.30;17.00;;;;;;;;;;5005486;28;20181;-73
2023/02/14 13:29:22;;;;;;;20.43;15.90;;;;;;;;;;5002968;28;20995;-72
2023/02/14 13:31:48;;;;;;;21.77;17.03;;;;;;;;;;5005273;28;20759;-72
2023/02/14 13:34:13;;;;;;;20.13;16.93;;;;;;;;;;5007053;28;20531;-72
2023/02/14 13:36:39;;;;;;;20.17;15.73;;;;;;;;;;5010376;28;20960;-73
2023/02/14 13:39:05;;;;;;;23.03;17.87;;;;;;;;;;5005708;28;20176;-73
2023/02/14 13:41:31;;;;;;;21.90;15.73;;;;;;;;;;5004417;28;20204;-72
2023/02/14 13:43:58;;;;;;;18.60;16.50;;;;;;;;;;5007040;28;20485;-72
2023/02/14 13:46:33;;;;;;;22.07;16.97;;;;;;;;;;5005982;28;21034;-72
2023/02/14 13:49:17;;;;;;;23.03;18.03;;;;;;;;;;4999866;28;20430;-72
2023/02/14 13:51:46;;;;;;;23.37;16.80;;;;;;;;;;4998144;28;20431;-71
2023/02/14 13:54:29;;;;;;;22.43;18.30;;;;;;;;;;4997871;28;20802;-72
2023/02/14 13:56:54;;;;;;;19.77;17.30;;;;;;;;;;5005829;28;20424;-72
2023/02/14 13:59:25;;;;;;;19.33;16.73;;;;;;;;;;5007570;28;20426;-72
2023/02/14 14:01:51;;;;;;;20.30;16.87;;;;;;;;;;5007875;28;20178;-72
2023/02/14 14:04:25;;;;;;;23.20;16.93;;;;;;;;;;5006542;28;20781;-72
2023/02/14 14:06:59;;;;;;;19.37;16.03;;;;;;;;;;5008271;28;20176;-72
2023/02/14 14:09:48;;;;;;;20.10;16.40;;;;;;;;;;5008520;28;21043;-72
2023/02/14 14:12:25;;;;;;;18.53;14.90;;;;;;;;;;5000926;28;20483;-72
2023/02/14 14:15:06;;;;;;;19.80;15.97;;;;;;;;;;5008852;28;20447;-72
2023/02/14 14:17:40;;;;;;;18.20;16.10;;;;;;;;;;5008848;28;20422;-73
2023/02/14 14:20:14;;;;;;;19.80;16.83;;;;;;;;;;5009652;28;20995;-72
2023/02/14 14:22:56;;;;;;;20.43;16.80;;;;;;;;;;5009385;28;20455;-72
2023/02/14 14:25:31;;;;;;;20.57;16.93;;;;;;;;;;5007786;28;20456;-72
2023/02/14 14:27:57;;;;;;;18.67;16.40;;;;;;;;;;5006326;28;20459;-72
2023/02/14 14:30:29;;;;;;;21.50;17.33;;;;;;;;;;5007604;28;20521;-72
2023/02/14 14:32:54;;;;;;;20.70;17.23;;;;;;;;;;5009772;28;20299;-73
2023/02/14 14:35:21;;;;;;;20.37;16.80;;;;;;;;;;5007572;28;20515;-72
2023/02/14 14:37:51;;;;;;;22.07;15.80;;;;;;;;;;5009756;28;20192;-72
2023/02/14 14:40:28;;;;;;;22.57;17.50;;;;;;;;;;5008258;28;20470;-72
2023/02/14 14:42:56;;;;;;;19.13;16.03;;;;;;;;;;5004327;28;20423;-72
2023/02/14 14:45:22;;;;;;;20.90;17.40;;;;;;;;;;5007299;28;20460;-72
2023/02/14 14:47:49;;;;;;;19.40;16.83;;;;;;;;;;5006688;28;20851;-72